Time;durP1;ratioP1;P1;durP2;ratioP2;P2;SDS_P1;SDS_P2;PMS_P1;PMS_P2;Temp;Humidity;BMP_temperature;BMP_pressure;BME280_temperature;BME280_humidity;BME280_pressure;Samples;Min_cycle;Max_cycle;Signal;HPM_P1;HPM_P2
2021/06/11 00:01:51;;;;;;;5.53;3.30;;;;;;;14.37;69.82;96702.32;1768794;80;20956;-79
2021/06/11 00:04:17;;;;;;;3.50;2.98;;;;;;;14.34;70.05;96699.61;1768121;80;21342;-79
2021/06/11 00:06:43;;;;;;;4.17;2.85;;;;;;;14.34;70.06;96698.30;1750545;81;20942;-79
2021/06/11 00:09:12;;;;;;;5.22;3.25;;;;;;;14.33;70.00;96696.69;1772139;80;20889;-79
2021/06/11 00:11:36;;;;;;;3.92;2.62;;;;;;;14.34;69.97;96693.07;1770052;81;20973;-79
2021/06/11 00:14:02;;;;;;;4.50;2.85;;;;;;;14.34;70.21;96698.80;1770127;81;20910;-79
2021/06/11 00:16:28;;;;;;;4.95;3.12;;;;;;;14.31;70.50;96697.86;1755530;81;20917;-79
2021/06/11 00:18:53;;;;;;;5.60;3.40;;;;;;;14.24;70.57;96691.32;1763373;81;21199;-79
2021/06/11 00:21:19;;;;;;;4.47;3.02;;;;;;;14.21;70.57;96689.11;1761535;81;20921;-79
2021/06/11 00:23:45;;;;;;;4.55;3.05;;;;;;;14.19;70.81;96687.20;1753313;81;20954;-79
2021/06/11 00:26:11;;;;;;;6.35;3.37;;;;;;;14.17;70.87;96689.20;1769813;81;20976;-79
2021/06/11 00:28:36;;;;;;;4.83;3.72;;;;;;;14.18;70.88;96693.92;1757916;81;21379;-79
2021/06/11 00:31:02;;;;;;;4.55;3.52;;;;;;;14.17;71.14;96687.89;1763537;81;20941;-79
2021/06/11 00:33:28;;;;;;;4.35;3.35;;;;;;;14.17;70.97;96684.48;1744383;80;20896;-79
2021/06/11 00:35:54;;;;;;;4.95;3.58;;;;;;;14.13;71.22;96686.16;1758013;81;21075;-79
2021/06/11 00:38:23;;;;;;;5.22;4.03;;;;;;;14.09;71.48;96685.44;1766920;81;20988;-79
2021/06/11 00:40:49;;;;;;;6.35;3.70;;;;;;;14.06;71.71;96687.14;1743943;81;20965;-79
2021/06/11 00:43:14;;;;;;;4.15;3.25;;;;;;;14.03;71.84;96677.89;1743562;81;20944;-79
2021/06/11 00:45:41;;;;;;;3.92;3.25;;;;;;;14.03;71.77;96681.02;1743199;81;21234;-79
2021/06/11 00:48:08;;;;;;;3.87;3.12;;;;;;;14.03;71.76;96679.70;1744458;81;20925;-79
2021/06/11 00:50:35;;;;;;;4.72;3.62;;;;;;;14.05;71.93;96680.31;1763266;81;20956;-79
2021/06/11 00:53:03;;;;;;;4.33;2.80;;;;;;;14.05;71.96;96679.81;1774262;80;20977;-79
2021/06/11 00:55:29;;;;;;;5.05;4.22;;;;;;;14.03;72.09;96678.40;1776753;80;20928;-79
2021/06/11 00:57:56;;;;;;;5.08;3.75;;;;;;;14.00;72.15;96682.22;1776075;81;20983;-79
2021/06/11 01:00:22;;;;;;;4.37;3.02;;;;;;;14.01;72.12;96680.41;1758578;80;20967;-79
2021/06/11 01:02:47;;;;;;;5.22;3.00;;;;;;;14.00;72.35;96686.13;1772643;80;20969;-79
2021/06/11 01:05:13;;;;;;;4.12;2.85;;;;;;;14.01;72.23;96686.44;1762005;80;20944;-79
2021/06/11 01:07:43;;;;;;;4.25;2.90;;;;;;;14.02;72.47;96685.94;1741625;81;20953;-79
2021/06/11 01:10:09;;;;;;;4.30;3.52;;;;;;;13.98;72.37;96678.16;1750070;80;20918;-79
2021/06/11 01:12:35;;;;;;;3.40;3.05;;;;;;;13.95;72.29;96679.86;1750568;81;21004;-79
2021/06/11 01:15:03;;;;;;;4.17;3.20;;;;;;;13.97;72.42;96681.27;1748250;80;20902;-79
2021/06/11 01:17:30;;;;;;;3.40;3.10;;;;;;;13.99;72.34;96675.84;1761866;80;20969;-79
2021/06/11 01:19:56;;;;;;;3.35;3.02;;;;;;;13.99;72.40;96672.77;1695215;83;21261;-79
2021/06/11 01:22:55;;;;;;;4.62;2.80;;;;;;;13.98;72.60;96667.20;1771448;80;21044;-79
2021/06/11 01:26:03;;;;;;;3.22;2.72;;;;;;;13.98;72.49;96673.73;1771973;81;20991;-79
2021/06/11 01:28:28;;;;;;;3.37;2.27;;;;;;;13.98;72.34;96671.13;1775646;80;20928;-79
2021/06/11 01:30:56;;;;;;;3.00;2.67;;;;;;;13.95;72.16;96670.22;1778187;81;20964;-79
2021/06/11 01:33:23;;;;;;;3.40;2.80;;;;;;;13.92;72.31;96666.70;1752327;81;21046;-79
2021/06/11 01:35:57;;;;;;;5.35;2.47;;;;;;;13.89;72.36;96662.37;1768360;81;20984;-79
2021/06/11 01:38:26;;;;;;;3.42;2.65;;;;;;;13.86;72.74;96663.56;1775762;80;20953;-79
2021/06/11 01:40:53;;;;;;;2.80;2.55;;;;;;;13.86;72.80;96662.77;1753697;80;21233;-79
2021/06/11 01:43:19;;;;;;;2.80;2.50;;;;;;;13.86;72.99;96666.68;1772282;80;20989;-79
2021/06/11 01:45:45;;;;;;;2.75;2.50;;;;;;;13.81;72.88;96664.13;1770728;80;21333;-79
2021/06/11 01:48:11;;;;;;;3.47;2.62;;;;;;;13.78;73.02;96661.91;1752339;81;20953;-79
2021/06/11 01:50:37;;;;;;;3.83;2.98;;;;;;;13.72;73.21;96657.48;1771971;81;20964;-79
2021/06/11 01:53:04;;;;;;;3.15;2.37;;;;;;;13.68;73.20;96662.80;1775175;80;20929;-79
2021/06/11 01:55:30;;;;;;;3.17;2.47;;;;;;;13.68;72.92;96661.98;1775481;80;20965;-79
2021/06/11 01:57:58;;;;;;;3.35;2.50;;;;;;;13.68;72.90;96658.88;1771984;80;20945;-79
2021/06/11 02:00:25;;;;;;;3.02;2.72;;;;;;;13.69;73.12;96668.31;1773374;80;20924;-79
2021/06/11 02:02:50;;;;;;;3.85;2.75;;;;;;;13.70;73.34;96659.48;1762682;80;22059;-79
2021/06/11 02:05:16;;;;;;;4.00;3.15;;;;;;;13.70;73.55;96663.91;1761629;80;20996;-78
2021/06/11 02:07:43;;;;;;;3.58;3.27;;;;;;;13.69;73.76;96664.41;1760607;80;21009;-79
2021/06/11 02:10:10;;;;;;;3.17;2.87;;;;;;;13.66;73.71;96663.95;1728530;80;20948;-79
2021/06/11 02:12:38;;;;;;;4.80;3.20;;;;;;;13.64;74.05;96668.07;1757526;80;21012;-79
2021/06/11 02:15:07;;;;;;;3.47;2.83;;;;;;;13.63;73.94;96668.27;1774575;80;20924;-79
2021/06/11 02:17:43;;;;;;;4.45;2.98;;;;;;;13.64;73.51;96670.69;1764096;81;20996;-79
2021/06/11 02:20:14;;;;;;;4.37;3.02;;;;;;;13.66;73.52;96672.59;1766674;80;21245;-79
2021/06/11 02:22:42;;;;;;;3.95;3.02;;;;;;;13.67;73.84;96672.13;1754815;81;20991;-79
2021/06/11 02:25:09;;;;;;;4.58;3.70;;;;;;;13.66;73.60;96675.20;1776820;80;20987;-79
2021/06/11 02:27:37;;;;;;;4.22;3.25;;;;;;;13.65;73.91;96672.80;1752375;81;20972;-79
2021/06/11 02:30:07;;;;;;;4.03;3.47;;;;;;;13.61;74.08;96671.08;1738119;81;20968;-79
2021/06/11 02:32:35;;;;;;;3.60;3.20;;;;;;;13.60;74.18;96668.66;1751608;80;21001;-79
2021/06/11 02:35:07;;;;;;;3.87;3.33;;;;;;;13.58;74.05;96674.08;1769551;81;21273;-79
2021/06/11 02:37:33;;;;;;;5.25;3.08;;;;;;;13.60;74.14;96668.16;1773821;81;20961;-79
2021/06/11 02:40:00;;;;;;;4.20;3.80;;;;;;;13.60;74.22;96669.97;1763504;80;21022;-79
2021/06/11 02:42:27;;;;;;;4.78;3.40;;;;;;;13.59;74.32;96674.38;1766498;80;21009;-79
2021/06/11 02:44:55;;;;;;;4.58;3.42;;;;;;;13.59;74.35;96670.97;1760359;81;21053;-79
2021/06/11 02:47:26;;;;;;;3.83;3.15;;;;;;;13.58;74.39;96667.55;1754084;81;20969;-79
2021/06/11 02:49:59;;;;;;;4.03;3.10;;;;;;;13.60;74.53;96669.47;1772917;80;20936;-79
2021/06/11 02:52:25;;;;;;;5.33;3.25;;;;;;;13.60;74.48;96668.66;1775566;81;20987;-79
2021/06/11 02:54:59;;;;;;;3.58;3.27;;;;;;;13.60;74.61;96664.74;1777324;80;20949;-79
2021/06/11 02:58:00;;;;;;;6.00;3.62;;;;;;;13.62;74.61;96666.16;1773407;80;20916;-79
2021/06/11 03:00:29;;;;;;;4.47;3.45;;;;;;;13.64;74.61;96671.19;1756583;80;20982;-79
2021/06/11 03:03:23;;;;;;;5.08;3.50;;;;;;;13.62;74.61;96670.08;1756461;80;21000;-79
2021/06/11 03:05:56;;;;;;;7.67;3.90;;;;;;;13.64;74.75;96676.41;1774177;80;20925;-78
2021/06/11 03:08:29;;;;;;;4.90;3.52;;;;;;;13.66;74.84;96670.48;1753841;80;21360;-79
2021/06/11 03:10:59;;;;;;;4.12;3.25;;;;;;;13.68;74.94;96677.66;1761982;80;21024;-79
2021/06/11 03:13:27;;;;;;;4.35;3.27;;;;;;;13.69;74.73;96677.96;1776833;80;20971;-79
2021/06/11 03:15:52;;;;;;;4.28;3.58;;;;;;;13.71;74.52;96681.17;1749866;81;20917;-79
2021/06/11 03:18:39;;;;;;;4.90;3.90;;;;;;;13.73;74.55;96682.59;1770211;81;20917;-79
2021/06/11 03:21:21;;;;;;;4.97;3.70;;;;;;;13.74;74.61;96685.51;1776043;80;20941;-79
2021/06/11 03:23:49;;;;;;;;;;;;;;;13.76;74.86;96684.81;1759318;81;20995;-79
2021/06/11 03:26:22;;;;;;;5.17;3.98;;;;;;;13.79;74.81;96687.53;1756375;80;20352;-79
2021/06/11 03:28:51;;;;;;;6.70;5.15;;;;;;;13.79;74.78;96681.80;1777841;81;20977;-79
2021/06/11 03:31:22;;;;;;;6.25;4.20;;;;;;;13.81;74.84;96677.19;1759400;80;21261;-79
2021/06/11 03:33:52;;;;;;;5.55;4.50;;;;;;;13.83;74.81;96675.72;1776425;81;20917;-79
2021/06/11 03:36:27;;;;;;;4.37;3.95;;;;;;;13.86;74.90;96675.83;1775787;81;21452;-79
2021/06/11 03:38:57;;;;;;;5.33;4.40;;;;;;;13.86;75.25;96681.05;1772275;80;20929;-79
2021/06/11 03:41:23;;;;;;;7.70;4.10;;;;;;;13.82;75.07;96676.19;1756516;81;20964;-79
2021/06/11 03:43:49;;;;;;;5.95;3.98;;;;;;;13.84;75.29;96677.33;1753763;80;21049;-79
2021/06/11 03:46:15;;;;;;;5.72;3.87;;;;;;;13.86;75.18;96677.94;1755374;81;21020;-79
2021/06/11 03:48:47;;;;;;;6.42;3.60;;;;;;;13.89;75.28;96680.15;1764053;80;21033;-79
2021/06/11 03:51:13;;;;;;;5.47;3.98;;;;;;;13.89;75.29;96678.84;1781040;80;21262;-79
2021/06/11 03:53:41;;;;;;;6.00;4.20;;;;;;;13.90;75.31;96680.95;1773289;80;20976;-79
2021/06/11 03:56:09;;;;;;;5.65;4.03;;;;;;;13.91;75.21;96681.26;1766644;81;20945;-79
2021/06/11 03:58:42;;;;;;;4.17;3.50;;;;;;;13.91;75.43;96675.53;1753407;81;20999;-79
2021/06/11 04:01:13;;;;;;;5.12;3.67;;;;;;;13.92;75.45;96678.95;1774856;80;20917;-78
2021/06/11 04:03:39;;;;;;;4.42;3.65;;;;;;;13.92;75.48;96678.45;1772484;80;21012;-79
2021/06/11 04:06:13;;;;;;;7.15;3.98;;;;;;;13.94;75.50;96680.36;1749928;80;21014;-78
2021/06/11 04:08:39;;;;;;;4.47;3.33;;;;;;;13.99;75.44;96686.30;1726915;81;20984;-79
2021/06/11 04:11:07;;;;;;;4.55;3.60;;;;;;;14.02;75.63;96684.13;1764129;80;20933;-79
2021/06/11 04:13:51;;;;;;;5.15;3.55;;;;;;;14.00;75.51;96682.22;1767790;80;20926;-79
2021/06/11 04:16:34;;;;;;;3.98;3.58;;;;;;;14.01;75.48;96686.94;1776788;81;20893;-79
2021/06/11 04:19:02;;;;;;;3.58;2.98;;;;;;;14.03;75.58;96687.55;1765463;80;20953;-79
2021/06/11 04:21:32;;;;;;;4.72;2.90;;;;;;;14.04;75.36;96683.92;1748802;81;20988;-79
2021/06/11 04:24:02;;;;;;;4.97;3.72;;;;;;;14.08;75.44;96683.83;1750115;80;20997;-79
2021/06/11 04:26:28;;;;;;;5.30;3.37;;;;;;;14.12;75.40;96689.77;1758909;80;20933;-79
2021/06/11 04:28:57;;;;;;;4.62;3.17;;;;;;;;;;1774511;81;20977;-79
2021/06/11 04:31:23;;;;;;;3.62;3.12;;;;;;;14.17;75.60;96685.78;1773489;80;20981;-79
2021/06/11 04:33:48;;;;;;;3.77;3.35;;;;;;;14.21;75.57;96689.11;1764989;81;20967;-79
2021/06/11 04:36:14;;;;;;;3.40;2.70;;;;;;;14.27;75.58;96694.84;1711129;82;21326;-79
2021/06/11 04:38:59;;;;;;;3.58;2.85;;;;;;;14.35;75.63;96692.06;1764937;80;21218;-79
2021/06/11 04:41:26;;;;;;;4.55;3.12;;;;;;;14.43;75.64;96691.06;1778702;81;20991;-79
2021/06/11 04:43:52;;;;;;;4.35;3.40;;;;;;;14.51;75.58;96683.08;1753673;80;20957;-79
2021/06/11 04:46:18;;;;;;;5.95;3.80;;;;;;;14.57;75.51;96681.47;1750734;80;20948;-79
2021/06/11 04:48:43;;;;;;;5.17;3.72;;;;;;;14.62;75.49;96685.08;1753804;81;20896;-79
2021/06/11 04:51:09;;;;;;;5.55;3.80;;;;;;;14.68;75.49;96686.12;1761438;80;21210;-78
2021/06/11 04:53:35;;;;;;;4.45;3.12;;;;;;;14.75;75.34;96685.61;1753756;80;20975;-79
2021/06/11 04:56:01;;;;;;;3.83;3.27;;;;;;;14.81;75.20;96680.91;1781639;80;20980;-79
2021/06/11 04:58:28;;;;;;;4.05;3.58;;;;;;;14.87;75.17;96678.78;1751391;81;20917;-80
2021/06/11 05:00:54;;;;;;;4.95;4.45;;;;;;;14.91;74.82;96680.48;1772279;80;20979;-79
2021/06/11 05:03:21;;;;;;;3.85;3.17;;;;;;;14.94;74.65;96682.69;1767315;81;20933;-79
2021/06/11 05:05:47;;;;;;;3.52;3.10;;;;;;;14.96;74.74;96687.22;1780607;80;21246;-79
2021/06/11 05:08:13;;;;;;;2.92;2.70;;;;;;;14.98;74.70;96680.00;1769129;80;20941;-79
2021/06/11 05:10:40;;;;;;;3.35;2.72;;;;;;;15.03;74.65;96676.27;1752810;81;20964;-79
2021/06/11 05:13:06;;;;;;;3.30;3.00;;;;;;;15.09;74.59;96683.80;1752026;80;20961;-79
2021/06/11 05:15:31;;;;;;;3.45;3.12;;;;;;;15.13;74.47;96679.28;1778268;80;20877;-79
2021/06/11 05:18:07;;;;;;;6.33;3.50;;;;;;;15.22;74.24;96679.87;1778286;80;21021;-79
2021/06/11 05:20:33;;;;;;;3.87;2.92;;;;;;;15.24;73.75;96677.34;1759895;80;20885;-79
2021/06/11 05:22:59;;;;;;;4.05;2.87;;;;;;;15.24;73.65;96674.72;1779527;80;21047;-79
2021/06/11 05:25:26;;;;;;;4.62;2.80;;;;;;;15.27;73.59;96677.44;1763337;80;21321;-79
2021/06/11 05:27:52;;;;;;;3.33;2.85;;;;;;;15.28;73.45;96679.84;1752565;81;20976;-79
2021/06/11 05:30:19;;;;;;;3.67;3.25;;;;;;;15.34;73.28;96686.61;1744131;81;21000;-79
2021/06/11 05:32:47;;;;;;;3.22;2.92;;;;;;;15.40;73.11;96684.47;1764192;81;20957;-80
2021/06/11 05:35:13;;;;;;;3.90;3.50;;;;;;;15.43;72.97;96683.55;1763222;81;21227;-79
2021/06/11 05:37:39;;;;;;;4.50;4.08;;;;;;;15.46;72.80;96684.48;1768282;80;21091;-79
2021/06/11 05:40:06;;;;;;;4.37;3.37;;;;;;;15.51;72.62;96690.40;1756333;80;20968;-79
2021/06/11 05:42:32;;;;;;;4.17;3.77;;;;;;;15.52;72.80;96684.95;1753299;80;20969;-79
2021/06/11 05:44:58;;;;;;;3.85;3.42;;;;;;;15.56;72.33;96690.08;1766014;80;20928;-79
2021/06/11 05:47:24;;;;;;;6.03;3.75;;;;;;;15.64;72.26;96689.09;1762538;81;20913;-79
2021/06/11 05:49:50;;;;;;;6.15;5.37;;;;;;;15.73;72.18;96687.84;1744919;81;20908;-79
2021/06/11 05:52:16;;;;;;;4.72;3.72;;;;;;;15.79;71.47;96683.61;1781314;80;20933;-85
2021/06/11 05:54:41;;;;;;;4.85;4.12;;;;;;;15.86;71.50;96683.07;1780374;80;21038;-78
2021/06/11 05:57:07;;;;;;;5.83;4.47;;;;;;;15.92;71.49;96683.54;1757475;80;21215;-77
2021/06/11 05:59:33;;;;;;;5.15;4.65;;;;;;;15.98;71.36;96689.28;1777548;80;20858;-77
2021/06/11 06:01:59;;;;;;;5.20;4.70;;;;;;;16.04;70.50;96687.13;1777236;81;20932;-77
2021/06/11 06:04:25;;;;;;;6.05;4.45;;;;;;;16.14;70.26;96683.56;1777594;81;20991;-77
2021/06/11 06:06:50;;;;;;;5.60;4.22;;;;;;;16.25;69.62;96683.39;1774537;80;21291;-77
2021/06/11 06:09:16;;;;;;;5.22;3.95;;;;;;;16.32;69.63;96682.86;1763889;81;20909;-77
2021/06/11 06:11:42;;;;;;;5.83;3.87;;;;;;;16.40;69.25;96685.23;1760640;80;20882;-77
2021/06/11 06:14:08;;;;;;;4.42;3.67;;;;;;;16.48;68.90;96685.50;1755105;80;20917;-77
2021/06/11 06:16:36;;;;;;;5.10;4.20;;;;;;;16.55;69.54;96684.94;1777138;81;21193;-77
2021/06/11 06:19:03;;;;;;;6.25;4.75;;;;;;;16.61;69.05;96691.17;1775723;81;20917;-77
2021/06/11 06:21:31;;;;;;;5.45;4.70;;;;;;;16.67;68.63;96695.09;1764428;81;20937;-77
2021/06/11 06:24:00;;;;;;;5.40;3.80;;;;;;;16.76;68.56;96690.40;1760143;81;21014;-78
2021/06/11 06:26:27;;;;;;;8.73;5.15;;;;;;;16.83;68.79;96689.03;1771888;81;20956;-77
2021/06/11 06:28:54;;;;;;;7.22;5.42;;;;;;;16.95;68.44;96696.00;1760399;80;20886;-77
2021/06/11 06:31:21;;;;;;;4.65;3.17;;;;;;;17.07;68.04;96699.52;1757034;81;21037;-78
2021/06/11 06:33:47;;;;;;;6.85;5.75;;;;;;;17.18;68.77;96698.54;1762716;80;20966;-77
2021/06/11 06:36:13;;;;;;;5.95;3.42;;;;;;;17.28;68.57;96693.61;1772998;80;20953;-77
2021/06/11 06:38:39;;;;;;;8.83;7.92;;;;;;;17.36;68.54;96692.80;1754022;81;20984;-77
2021/06/11 06:41:08;;;;;;;4.97;4.05;;;;;;;17.42;68.15;96694.30;1766183;80;20968;-77
2021/06/11 06:43:34;;;;;;;6.87;4.72;;;;;;;17.52;68.52;96694.58;1772295;81;20965;-77
2021/06/11 06:46:00;;;;;;;9.18;7.35;;;;;;;17.62;68.25;96694.89;1764069;81;20972;-77
2021/06/11 06:48:26;;;;;;;9.80;7.67;;;;;;;17.73;68.33;96697.31;1765323;81;20908;-78
2021/06/11 06:50:57;;;;;;;10.20;8.33;;;;;;;17.84;67.72;96693.97;1763165;81;21262;-77
2021/06/11 06:53:23;;;;;;;9.70;8.65;;;;;;;17.96;67.64;96695.65;1708751;82;21382;-78
2021/06/11 06:55:49;;;;;;;5.67;4.47;;;;;;;18.05;67.35;96689.56;1772808;80;20951;-78
2021/06/11 06:58:15;;;;;;;9.80;7.58;;;;;;;18.18;67.73;96700.44;1759101;80;20961;-78
2021/06/11 07:00:41;;;;;;;9.58;8.13;;;;;;;18.29;67.60;96695.23;1762399;81;20917;-78
2021/06/11 07:03:07;;;;;;;9.83;7.60;;;;;;;18.38;67.68;96694.91;1768801;80;20921;-77
2021/06/11 07:05:33;;;;;;;10.40;8.08;;;;;;;18.50;67.63;96697.08;1755620;81;20898;-77
2021/06/11 07:07:58;;;;;;;10.08;8.00;;;;;;;18.64;67.08;96697.73;1752562;80;21040;-77
2021/06/11 07:10:24;;;;;;;9.03;7.92;;;;;;;18.77;66.84;96692.28;1749240;81;21315;-77
2021/06/11 07:12:50;;;;;;;9.33;8.20;;;;;;;18.87;66.63;96696.45;1767328;80;20949;-77
2021/06/11 07:15:16;;;;;;;9.85;7.47;;;;;;;18.97;66.32;96688.81;1753465;80;21299;-77
2021/06/11 07:17:42;;;;;;;8.90;8.00;;;;;;;19.04;66.82;96690.84;1750098;81;20902;-77
2021/06/11 07:20:09;;;;;;;9.50;7.50;;;;;;;19.12;65.75;96692.33;1756490;81;20901;-78
2021/06/11 07:22:35;;;;;;;10.15;6.62;;;;;;;19.21;66.14;96690.97;1742938;81;20936;-77
2021/06/11 07:25:05;;;;;;;8.80;8.00;;;;;;;19.26;65.84;96690.28;1744138;81;20946;-77
2021/06/11 07:27:32;;;;;;;11.33;8.75;;;;;;;19.27;65.16;96690.56;1743420;81;21295;-78
2021/06/11 07:30:04;;;;;;;11.35;7.80;;;;;;;19.34;65.00;96684.14;1702994;83;21001;-78
2021/06/11 07:32:29;;;;;;;6.40;5.80;;;;;;;19.44;64.91;96687.02;1751268;81;20919;-78
2021/06/11 07:34:57;;;;;;;7.65;6.85;;;;;;;19.57;65.17;96686.53;1756456;80;21009;-78
2021/06/11 07:37:23;;;;;;;7.72;6.95;;;;;;;19.65;65.36;96691.43;1767396;81;20969;-78
2021/06/11 07:39:49;;;;;;;8.05;6.70;;;;;;;19.74;64.95;96688.73;1759981;81;20986;-77
2021/06/11 07:42:15;;;;;;;8.78;7.62;;;;;;;19.83;64.16;96690.48;1743878;81;21016;-78
2021/06/11 07:44:41;;;;;;;8.25;7.53;;;;;;;19.86;63.26;96690.84;1772268;81;21294;-78
2021/06/11 07:47:06;;;;;;;8.03;7.25;;;;;;;19.89;63.07;96694.84;1771797;81;20914;-77
2021/06/11 07:49:33;;;;;;;8.13;6.60;;;;;;;19.95;63.18;96694.70;1762748;81;20906;-77
2021/06/11 07:51:59;;;;;;;8.33;6.92;;;;;;;20.00;63.33;96693.48;1772268;81;20932;-77
2021/06/11 07:54:25;;;;;;;7.45;6.75;;;;;;;20.06;63.47;96695.20;1743198;80;21281;-80
2021/06/11 07:56:51;;;;;;;6.58;5.72;;;;;;;20.14;62.81;96691.90;1712579;83;20994;-80
2021/06/11 07:59:16;;;;;;;7.30;6.60;;;;;;;20.21;63.14;96695.22;1701243;84;20915;-79
2021/06/11 08:01:43;;;;;;;7.97;7.25;;;;;;;20.29;62.51;96696.16;1749095;80;20950;-80
2021/06/11 08:04:08;;;;;;;8.65;6.62;;;;;;;20.38;62.01;96694.23;1770260;80;20964;-79
2021/06/11 08:06:34;;;;;;;8.43;7.53;;;;;;;20.48;61.39;96696.79;1747754;80;21004;-80
2021/06/11 08:09:00;;;;;;;8.13;6.95;;;;;;;20.56;61.53;96690.63;1758098;80;20910;-80
2021/06/11 08:11:26;;;;;;;7.65;6.25;;;;;;;20.63;60.78;96688.62;1762339;80;20937;-80
2021/06/11 08:13:51;;;;;;;9.25;7.08;;;;;;;20.72;61.42;96685.09;1772206;80;20903;-80
2021/06/11 08:16:18;;;;;;;7.90;7.10;;;;;;;20.84;59.84;96687.16;1776652;81;20961;-80
2021/06/11 08:18:43;;;;;;;8.13;7.30;;;;;;;20.90;60.60;96688.83;1777269;81;20917;-81
2021/06/11 08:21:09;;;;;;;7.55;6.53;;;;;;;21.07;59.56;96684.06;1777039;80;20952;-81
2021/06/11 08:23:35;;;;;;;7.37;6.65;;;;;;;21.17;58.53;96675.78;1770598;81;21298;-80
2021/06/11 08:26:01;;;;;;;6.78;5.83;;;;;;;21.31;59.30;96686.03;1770377;80;20902;-81
2021/06/11 08:28:26;;;;;;;7.30;6.22;;;;;;;21.31;58.27;96684.70;1773904;80;20881;-81
2021/06/11 08:30:52;;;;;;;6.17;5.58;;;;;;;21.05;58.25;96678.23;1765413;80;20898;-81
2021/06/11 08:33:18;;;;;;;7.45;6.75;;;;;;;21.15;57.35;96687.61;1770810;80;20881;-81
2021/06/11 08:35:44;;;;;;;5.87;4.65;;;;;;;21.37;57.30;96675.83;1778390;81;20901;-81
2021/06/11 08:38:09;;;;;;;8.65;6.78;;;;;;;21.56;58.45;96676.63;1777976;81;20976;-81
2021/06/11 08:40:35;;;;;;;6.12;5.53;;;;;;;21.71;58.15;96679.20;1774601;80;21258;-80
2021/06/11 08:43:01;;;;;;;5.75;5.15;;;;;;;21.49;57.23;96677.34;1769275;81;20870;-81
2021/06/11 08:45:26;;;;;;;6.25;5.10;;;;;;;21.27;57.53;96683.88;1777328;80;20963;-80
2021/06/11 08:47:54;;;;;;;5.25;4.35;;;;;;;21.42;57.26;96675.38;1773324;81;20941;-81
2021/06/11 08:50:29;;;;;;;4.28;3.37;;;;;;;21.63;55.84;96673.80;1767982;80;20956;-81
2021/06/11 08:52:56;;;;;;;5.50;4.17;;;;;;;21.47;55.43;96679.40;1778566;80;21036;-81
2021/06/11 08:55:22;;;;;;;4.95;4.45;;;;;;;21.35;55.12;96683.20;1773439;81;21075;-81
2021/06/11 08:57:48;;;;;;;4.40;3.92;;;;;;;21.16;54.76;96679.99;1780699;80;20981;-81
2021/06/11 09:00:14;;;;;;;3.60;3.30;;;;;;;21.02;54.94;96672.91;1781229;80;20955;-81
2021/06/11 09:03:21;;;;;;;4.80;3.02;;;;;;;21.30;55.47;96667.25;1753496;80;20932;-81
2021/06/11 09:06:01;;;;;;;4.30;3.83;;;;;;;21.61;55.89;96665.84;1777121;80;21000;-81
2021/06/11 09:08:28;;;;;;;5.60;3.27;;;;;;;21.93;54.88;96673.91;1758579;80;20973;-81
2021/06/11 09:11:19;;;;;;;2.98;2.67;;;;;;;22.24;54.55;96668.48;1772065;80;20975;-81
2021/06/11 09:13:51;;;;;;;4.42;3.62;;;;;;;22.44;54.97;96672.13;1774663;80;20964;-81
2021/06/11 09:16:25;;;;;;;3.70;3.40;;;;;;;22.68;53.21;96671.84;1781115;80;21269;-81
2021/06/11 09:18:59;;;;;;;5.35;3.02;;;;;;;22.48;51.02;96671.13;1780565;80;20937;-81
2021/06/11 09:21:49;;;;;;;3.62;2.87;;;;;;;22.61;52.00;96672.55;1770536;80;21004;-81
2021/06/11 09:24:26;;;;;;;4.75;2.62;;;;;;;22.87;51.29;96669.64;1778302;81;20969;-81
2021/06/11 09:27:10;;;;;;;4.62;3.27;;;;;;;23.14;50.52;96667.75;1764341;81;20889;-81
2021/06/11 09:29:43;;;;;;;4.17;3.22;;;;;;;23.33;50.07;96658.33;1781372;80;20940;-81
2021/06/11 09:32:26;;;;;;;3.40;3.05;;;;;;;23.61;49.90;96653.22;1766377;81;20956;-81
2021/06/11 09:34:56;;;;;;;3.55;3.02;;;;;;;23.89;49.77;96659.16;1777099;81;20921;-81
2021/06/11 09:37:30;;;;;;;3.85;3.55;;;;;;;23.90;46.13;96657.58;1765027;80;20917;-81
2021/06/11 09:39:56;;;;;;;5.67;3.00;;;;;;;23.81;48.10;96662.33;1762382;81;21000;-81
2021/06/11 09:42:25;;;;;;;3.67;3.00;;;;;;;23.76;46.35;96659.13;1769531;80;20988;-81
2021/06/11 09:45:06;;;;;;;2.87;2.60;;;;;;;23.70;45.89;96657.49;1773615;80;21001;-81
2021/06/11 09:47:47;;;;;;;4.62;2.75;;;;;;;23.64;47.75;96658.01;1773219;80;20990;-81
2021/06/11 09:50:26;;;;;;;2.70;2.50;;;;;;;23.63;45.79;96658.27;1769032;80;20965;-80
2021/06/11 09:53:04;;;;;;;2.62;2.15;;;;;;;23.47;44.92;96648.08;1769584;80;20956;-81
2021/06/11 09:55:45;;;;;;;2.70;2.00;;;;;;;23.54;46.08;96642.53;1766173;80;21013;-81
2021/06/11 09:58:23;;;;;;;3.00;2.05;;;;;;;23.62;44.87;96643.41;1759875;80;21179;-81
2021/06/11 10:01:09;;;;;;;2.50;2.05;;;;;;;23.65;44.31;96636.26;1763735;80;20929;-81
2021/06/11 10:03:37;;;;;;;3.50;2.20;;;;;;;23.75;44.54;96632.83;1770642;80;21269;-81
2021/06/11 10:06:07;;;;;;;2.55;2.35;;;;;;;23.88;44.44;96631.03;1767267;80;20925;-81
2021/06/11 10:08:33;;;;;;;3.90;2.52;;;;;;;23.96;44.45;96633.20;1743399;81;21326;-81
2021/06/11 10:11:05;;;;;;;3.90;2.33;;;;;;;24.03;44.35;96625.78;1761075;80;20971;-81
2021/06/11 10:13:31;;;;;;;4.33;2.40;;;;;;;24.16;43.73;96630.59;1772167;80;20910;-81
2021/06/11 10:16:00;;;;;;;2.62;2.42;;;;;;;24.11;43.04;96615.99;1758556;80;20949;-81
2021/06/11 10:18:26;;;;;;;3.90;2.83;;;;;;;24.11;43.04;96615.99;1780422;80;20980;-81
2021/06/11 10:20:52;;;;;;;4.87;3.15;;;;;;;24.06;43.20;96619.14;1778004;80;20960;-81
2021/06/11 10:23:20;;;;;;;4.17;2.98;;;;;;;24.10;43.91;96616.26;1743658;82;21265;-81
2021/06/11 10:25:51;;;;;;;4.30;2.70;;;;;;;24.24;44.68;96610.69;1765465;81;20937;-81
2021/06/11 10:28:19;;;;;;;3.35;2.50;;;;;;;24.30;44.08;96600.39;1779532;81;20984;-81
2021/06/11 10:30:47;;;;;;;3.65;3.12;;;;;;;24.39;43.98;96601.45;1763639;80;20993;-81
2021/06/11 10:33:12;;;;;;;4.08;2.40;;;;;;;24.39;43.71;96594.81;1763185;80;20925;-81
2021/06/11 10:35:46;;;;;;;3.62;2.70;;;;;;;24.68;45.01;96581.81;1775983;80;20932;-81
2021/06/11 10:38:29;;;;;;;2.60;2.40;;;;;;;24.68;45.01;96581.81;1758674;81;21018;-81
2021/06/11 10:41:02;;;;;;;3.33;2.47;;;;;;;24.83;45.97;96583.14;1769534;80;21365;-81
2021/06/11 10:43:32;;;;;;;3.40;2.22;;;;;;;24.95;44.34;96573.56;1754633;80;20937;-81
2021/06/11 10:45:59;;;;;;;2.40;2.20;;;;;;;25.14;43.70;96571.95;1725149;80;21042;-82
2021/06/11 10:48:26;;;;;;;4.08;2.55;;;;;;;25.16;42.88;96571.68;1763129;81;21346;-82
2021/06/11 10:50:51;;;;;;;3.85;2.22;;;;;;;25.09;41.49;96571.98;1773890;81;21011;-82
2021/06/11 10:53:27;;;;;;;3.42;1.95;;;;;;;24.99;40.66;96571.16;1773796;81;20894;-82
2021/06/11 10:56:19;;;;;;;1.90;1.77;;;;;;;24.93;40.17;96573.03;1695311;84;21318;-82
2021/06/11 10:58:45;;;;;;;3.58;2.12;;;;;;;24.92;41.77;96568.78;1677957;84;20929;-82
2021/06/11 11:01:29;;;;;;;2.12;1.82;;;;;;;24.94;42.65;96567.98;1756751;81;20893;-81
2021/06/11 11:04:16;;;;;;;2.33;2.10;;;;;;;24.97;42.66;96560.80;1776724;81;20940;-82
2021/06/11 11:06:42;;;;;;;2.22;2.00;;;;;;;24.86;42.32;96560.54;1767944;81;20940;-81
2021/06/11 11:09:08;;;;;;;3.22;2.12;;;;;;;25.00;42.15;96547.52;1750396;80;21033;-82
2021/06/11 11:11:40;;;;;;;3.80;2.30;;;;;;;25.00;42.15;96547.52;1772654;81;20929;-81
2021/06/11 11:14:06;;;;;;;3.00;2.50;;;;;;;24.98;41.43;96547.77;1776488;80;20912;-82
2021/06/11 11:16:37;;;;;;;2.55;2.35;;;;;;;24.81;41.45;96551.25;1751498;81;21004;-82
2021/06/11 11:19:05;;;;;;;3.15;2.35;;;;;;;24.82;42.57;96553.64;1756691;80;20937;-82
2021/06/11 11:21:38;;;;;;;2.95;2.58;;;;;;;24.78;44.00;96549.93;1773797;80;20921;-82
2021/06/11 11:24:09;;;;;;;3.90;2.60;;;;;;;24.79;42.80;96550.19;1753405;81;20965;-82
2021/06/11 11:26:42;;;;;;;3.40;2.05;;;;;;;24.85;41.17;96549.64;1771262;80;20957;-82
2021/06/11 11:29:10;;;;;;;4.08;2.20;;;;;;;24.96;41.37;96551.23;1772849;80;20979;-82
2021/06/11 11:31:36;;;;;;;3.98;2.15;;;;;;;25.13;40.89;96553.62;1774724;80;20935;-82
2021/06/11 11:34:03;;;;;;;2.87;2.25;;;;;;;25.26;40.01;96542.95;1773519;81;21326;-82
2021/06/11 11:36:29;;;;;;;3.30;2.35;;;;;;;25.23;41.11;96540.84;1765853;81;20938;-82
2021/06/11 11:38:55;;;;;;;2.83;2.60;;;;;;;25.25;40.81;96539.50;1768635;80;21032;-82
2021/06/11 11:41:21;;;;;;;3.90;2.35;;;;;;;25.28;41.00;96542.94;1750390;81;21239;-82
2021/06/11 11:43:49;;;;;;;2.85;2.62;;;;;;;25.26;39.55;96542.95;1762445;80;20922;-82